Time;durP1;ratioP1;P1;durP2;ratioP2;P2;SDS_P1;SDS_P2;PMS_P1;PMS_P2;Temp;Humidity;BMP_temperature;BMP_pressure;BME280_temperature;BME280_humidity;BME280_pressure;Samples;Min_cycle;Max_cycle;Signal;HPM_P1;HPM_P2
2022/03/06 00:02:08;;;;;;;18.45;8.77;;;4.50;73.10;;;;;;5085805;28;20036;-72
2022/03/06 00:04:33;;;;;;;13.50;7.22;;;4.50;73.40;;;;;;5087566;28;20024;-72
2022/03/06 00:06:59;;;;;;;16.00;8.27;;;4.50;72.90;;;;;;5087267;28;20032;-72
2022/03/06 00:09:25;;;;;;;26.20;9.77;;;4.50;72.80;;;;;;5086062;28;20485;-72
2022/03/06 00:11:52;;;;;;;15.95;7.65;;;4.50;73.20;;;;;;5086677;28;20024;-72
2022/03/06 00:14:18;;;;;;;16.67;8.57;;;4.50;72.60;;;;;;5086969;28;20043;-72
2022/03/06 00:16:44;;;;;;;14.95;8.15;;;4.50;72.10;;;;;;5087367;28;20091;-72
2022/03/06 00:19:10;;;;;;;15.32;8.32;;;4.50;72.40;;;;;;5087335;28;20028;-72
2022/03/06 00:21:35;;;;;;;15.77;8.25;;;4.50;71.90;;;;;;5087055;28;20032;-72
2022/03/06 00:24:02;;;;;;;14.77;8.27;;;4.60;73.30;;;;;;5087290;28;20996;-72
2022/03/06 00:26:27;;;;;;;14.57;7.53;;;4.40;72.10;;;;;;5087029;28;20060;-72
2022/03/06 00:28:53;;;;;;;16.30;7.53;;;4.20;72.40;;;;;;5087009;28;20055;-72
2022/03/06 00:31:19;;;;;;;15.77;7.90;;;4.10;73.10;;;;;;5086777;28;20028;-72
2022/03/06 00:33:44;;;;;;;16.13;8.98;;;4.00;73.20;;;;;;5087052;28;20032;-72
2022/03/06 00:36:10;;;;;;;13.75;8.45;;;4.00;73.40;;;;;;5087138;28;20035;-72
2022/03/06 00:38:36;;;;;;;14.38;8.32;;;3.90;73.50;;;;;;5087390;28;20110;-72
2022/03/06 00:41:02;;;;;;;14.52;7.38;;;3.90;73.70;;;;;;5087240;28;20024;-72
2022/03/06 00:43:27;;;;;;;16.13;8.52;;;3.70;74.60;;;;;;5086985;28;20387;-72
2022/03/06 00:45:53;;;;;;;16.60;8.77;;;3.60;74.30;;;;;;5086518;28;20508;-72
2022/03/06 00:48:19;;;;;;;18.10;8.18;;;3.50;74.60;;;;;;5086910;28;20366;-72
2022/03/06 00:50:45;;;;;;;14.18;7.47;;;3.20;76.10;;;;;;5087248;28;20016;-72
2022/03/06 00:53:10;;;;;;;15.80;7.70;;;3.10;76.40;;;;;;5086676;28;20101;-72
2022/03/06 00:55:37;;;;;;;21.27;8.77;;;3.10;75.80;;;;;;5086927;28;20035;-72
2022/03/06 00:58:05;;;;;;;16.58;8.40;;;3.20;75.60;;;;;;5086798;28;20031;-72
2022/03/06 01:00:37;;;;;;;18.98;8.63;;;3.30;75.20;;;;;;5086270;28;20535;-72
2022/03/06 01:03:14;;;;;;;16.92;8.57;;;3.40;75.00;;;;;;5087095;28;20100;-72
2022/03/06 01:05:40;;;;;;;14.40;8.13;;;3.40;74.70;;;;;;5086638;28;20028;-71
2022/03/06 01:08:07;;;;;;;17.30;8.98;;;3.30;74.90;;;;;;5086629;28;20088;-72
2022/03/06 01:10:33;;;;;;;14.15;8.45;;;3.30;74.90;;;;;;5066522;28;20051;-72
2022/03/06 01:12:59;;;;;;;19.48;9.20;;;3.20;75.00;;;;;;5074723;28;20028;-72
2022/03/06 01:15:25;;;;;;;16.95;9.07;;;3.20;75.10;;;;;;5086650;28;20020;-72
2022/03/06 01:17:51;;;;;;;14.63;7.88;;;3.20;75.30;;;;;;5086478;28;20020;-72
2022/03/06 01:20:17;;;;;;;15.20;8.38;;;3.00;76.30;;;;;;5086699;28;20028;-72
2022/03/06 01:22:44;;;;;;;15.88;7.68;;;2.80;76.40;;;;;;5086275;28;20666;-72
2022/03/06 01:25:10;;;;;;;13.82;8.07;;;2.70;77.20;;;;;;5086297;28;20024;-72
2022/03/06 01:27:36;;;;;;;18.98;10.23;;;2.70;77.40;;;;;;5086372;28;20035;-72
2022/03/06 01:30:05;;;;;;;17.08;8.88;;;2.50;78.00;;;;;;5086656;28;20028;-72
2022/03/06 01:32:32;;;;;;;18.75;9.32;;;2.60;77.80;;;;;;5086711;28;20017;-72
2022/03/06 01:34:58;;;;;;;15.93;7.82;;;2.60;77.70;;;;;;5086444;28;20666;-72
2022/03/06 01:37:24;;;;;;;17.67;8.40;;;2.60;78.90;;;;;;5086588;28;20032;-72
2022/03/06 01:39:50;;;;;;;18.65;8.25;;;2.60;78.60;;;;;;5086488;28;20070;-72
2022/03/06 01:42:16;;;;;;;20.08;8.35;;;2.40;78.80;;;;;;5086451;28;20468;-72
2022/03/06 01:44:45;;;;;;;17.10;9.00;;;2.50;78.50;;;;;;5086384;28;20030;-72
2022/03/06 01:47:11;;;;;;;15.45;8.68;;;2.40;78.80;;;;;;5086426;28;20028;-72
2022/03/06 01:49:37;;;;;;;18.85;8.20;;;2.40;78.70;;;;;;5086095;28;20020;-71
2022/03/06 01:52:03;;;;;;;20.90;10.75;;;2.50;78.50;;;;;;5086336;28;20054;-72
2022/03/06 01:54:29;;;;;;;17.25;8.88;;;2.50;78.50;;;;;;5085762;28;20027;-72
2022/03/06 01:56:55;;;;;;;15.77;8.02;;;2.60;77.80;;;;;;5086213;28;20054;-72
2022/03/06 01:59:23;;;;;;;16.63;8.60;;;2.60;78.20;;;;;;5086255;28;20406;-72
2022/03/06 02:01:49;;;;;;;19.25;8.70;;;2.60;78.20;;;;;;5086184;28;20359;-72
2022/03/06 02:04:15;;;;;;;17.10;9.00;;;2.50;79.00;;;;;;5086052;28;20106;-72
2022/03/06 02:06:40;;;;;;;17.75;8.80;;;2.50;80.00;;;;;;5086090;28;20111;-72
2022/03/06 02:09:06;;;;;;;19.13;9.20;;;2.50;79.80;;;;;;5085924;28;20467;-72
2022/03/06 02:11:32;;;;;;;15.43;8.90;;;2.60;78.70;;;;;;5086226;28;20373;-72
2022/03/06 02:14:02;;;;;;;17.45;7.57;;;2.70;78.20;;;;;;5085935;28;20032;-72
2022/03/06 02:16:30;;;;;;;14.50;7.70;;;2.80;78.00;;;;;;5066552;28;20036;-72
2022/03/06 02:18:56;;;;;;;14.68;8.35;;;2.70;78.00;;;;;;5066450;28;20499;-72
2022/03/06 02:21:21;;;;;;;18.40;8.38;;;2.80;77.60;;;;;;5066444;28;20093;-72
2022/03/06 02:23:47;;;;;;;18.27;8.20;;;2.80;77.30;;;;;;5067300;28;20067;-72
2022/03/06 02:26:13;;;;;;;15.77;8.75;;;2.80;77.20;;;;;;5068713;28;20028;-72
2022/03/06 02:28:39;;;;;;;13.75;7.30;;;2.80;77.10;;;;;;5068652;28;20029;-72
2022/03/06 02:31:05;;;;;;;16.40;8.27;;;2.80;77.20;;;;;;5069793;28;20036;-72
2022/03/06 02:33:30;;;;;;;14.63;7.32;;;2.80;76.70;;;;;;5069636;28;20035;-72
2022/03/06 02:35:56;;;;;;;14.77;7.47;;;2.90;76.80;;;;;;5069663;28;20025;-72
2022/03/06 02:38:22;;;;;;;20.10;8.88;;;2.80;76.80;;;;;;5069535;28;20024;-72
2022/03/06 02:40:47;;;;;;;16.73;8.05;;;2.80;76.80;;;;;;5069904;28;20068;-73
2022/03/06 02:43:15;;;;;;;15.13;8.18;;;2.80;77.10;;;;;;5069593;28;20105;-72
2022/03/06 02:45:41;;;;;;;16.88;7.90;;;2.80;77.10;;;;;;5069298;28;20025;-72
2022/03/06 02:48:07;;;;;;;20.60;9.13;;;2.80;77.00;;;;;;5069264;28;20029;-73
2022/03/06 02:50:36;;;;;;;14.07;9.00;;;2.70;77.20;;;;;;5082213;28;20028;-72
2022/03/06 02:53:05;;;;;;;14.73;8.35;;;2.70;77.50;;;;;;5088880;28;20391;-72
2022/03/06 02:55:31;;;;;;;17.13;8.15;;;2.60;77.70;;;;;;5088859;28;20035;-72
2022/03/06 02:57:57;;;;;;;17.65;9.15;;;2.60;78.00;;;;;;5089640;28;20377;-73
2022/03/06 03:00:24;;;;;;;17.08;9.05;;;2.60;78.40;;;;;;5087657;28;20131;-72
2022/03/06 03:02:50;;;;;;;15.30;8.55;;;2.60;78.50;;;;;;5089896;28;20156;-72
2022/03/06 03:05:17;;;;;;;17.65;9.40;;;2.60;77.90;;;;;;5089198;28;20035;-72
2022/03/06 03:07:48;;;;;;;16.75;8.93;;;2.60;78.20;;;;;;5088888;28;20024;-72
2022/03/06 03:10:16;;;;;;;14.63;7.38;;;2.60;78.10;;;;;;5088894;28;20020;-72
2022/03/06 03:12:43;;;;;;;15.35;8.73;;;2.40;78.80;;;;;;5088984;28;20028;-72
2022/03/06 03:15:10;;;;;;;18.83;8.77;;;2.40;79.20;;;;;;5089315;28;20062;-73
2022/03/06 03:17:36;;;;;;;15.25;7.68;;;2.50;78.70;;;;;;5087433;28;20102;-72
2022/03/06 03:20:04;;;;;;;18.35;8.85;;;2.40;78.70;;;;;;5087300;28;20122;-72
2022/03/06 03:22:30;;;;;;;21.35;9.18;;;2.50;78.70;;;;;;5084752;28;20536;-72
2022/03/06 03:24:55;;;;;;;18.30;9.45;;;2.60;78.60;;;;;;5087414;28;20028;-73
2022/03/06 03:27:21;;;;;;;15.55;7.82;;;2.50;79.00;;;;;;5087323;28;20455;-72
2022/03/06 03:29:47;;;;;;;16.02;8.93;;;2.50;78.70;;;;;;5087314;28;20028;-72
2022/03/06 03:32:12;;;;;;;18.02;8.60;;;2.50;79.00;;;;;;5087380;28;20512;-72
2022/03/06 03:34:38;;;;;;;20.23;10.02;;;2.50;78.90;;;;;;5086820;28;20024;-72
2022/03/06 03:37:04;;;;;;;17.42;8.07;;;2.60;78.90;;;;;;5087503;28;20036;-72
2022/03/06 03:39:30;;;;;;;15.85;8.02;;;2.70;78.90;;;;;;5087163;28;20079;-72
2022/03/06 03:41:55;;;;;;;17.73;8.60;;;2.70;78.80;;;;;;5087413;28;20027;-72
2022/03/06 03:44:21;;;;;;;18.88;9.63;;;2.80;78.80;;;;;;5087505;28;20020;-72
2022/03/06 03:46:47;;;;;;;17.08;7.93;;;2.80;78.20;;;;;;5087155;28;20035;-72
2022/03/06 03:49:14;;;;;;;17.38;9.48;;;2.80;78.60;;;;;;5087052;28;20020;-72
2022/03/06 03:51:40;;;;;;;17.52;9.15;;;2.70;78.90;;;;;;5087377;28;20107;-72
2022/03/06 03:54:06;;;;;;;16.23;9.88;;;2.70;79.00;;;;;;5087438;28;20032;-72
2022/03/06 03:56:32;;;;;;;19.48;9.40;;;2.80;79.10;;;;;;5088725;28;20477;-72
2022/03/06 03:58:57;;;;;;;19.20;10.23;;;2.80;79.40;;;;;;5088044;28;20044;-72
2022/03/06 04:01:23;;;;;;;20.05;10.10;;;2.80;79.20;;;;;;5086378;28;20131;-71
2022/03/06 04:03:49;;;;;;;17.00;9.00;;;2.80;79.50;;;;;;5073718;28;20115;-71
2022/03/06 04:06:14;;;;;;;15.27;7.55;;;2.80;80.00;;;;;;5084143;28;20032;-71
2022/03/06 04:08:40;;;;;;;17.38;8.73;;;2.80;80.70;;;;;;5086403;28;20067;-71
2022/03/06 04:11:06;;;;;;;17.95;8.80;;;2.80;80.90;;;;;;5085743;28;20469;-71
2022/03/06 04:13:32;;;;;;;19.83;8.75;;;2.80;80.40;;;;;;5083915;28;20301;-71
2022/03/06 04:15:58;;;;;;;17.15;8.73;;;2.90;81.50;;;;;;5083703;28;20673;-71
2022/03/06 04:18:24;;;;;;;17.35;8.23;;;2.90;82.40;;;;;;5083010;28;20390;-71
2022/03/06 04:20:50;;;;;;;20.10;10.55;;;2.90;82.10;;;;;;5083007;28;20040;-71
2022/03/06 04:23:16;;;;;;;18.70;8.98;;;2.90;81.50;;;;;;5083783;28;20020;-71
2022/03/06 04:25:41;;;;;;;16.88;9.18;;;2.70;82.00;;;;;;5083308;28;20032;-71
2022/03/06 04:28:08;;;;;;;15.90;8.32;;;2.50;81.60;;;;;;5083399;28;20486;-71
2022/03/06 04:30:34;;;;;;;15.48;8.38;;;2.50;81.50;;;;;;5082989;28;20024;-71
2022/03/06 04:32:59;;;;;;;16.20;8.90;;;2.40;81.20;;;;;;5086365;28;20496;-71
2022/03/06 04:35:25;;;;;;;16.23;9.10;;;2.50;81.10;;;;;;5086121;28;20173;-71
2022/03/06 04:37:51;;;;;;;16.40;9.23;;;2.60;81.90;;;;;;5086604;28;20594;-71
2022/03/06 04:40:16;;;;;;;16.05;8.77;;;2.60;81.10;;;;;;5085295;28;20032;-71
2022/03/06 04:42:42;;;;;;;19.05;9.32;;;2.60;81.00;;;;;;5086238;28;20103;-71
2022/03/06 04:45:09;;;;;;;14.80;8.35;;;2.60;81.60;;;;;;5085749;28;20519;-71
2022/03/06 04:47:34;;;;;;;16.38;9.10;;;2.60;80.60;;;;;;5085478;28;20031;-71
2022/03/06 04:50:00;;;;;;;17.67;8.85;;;2.60;80.30;;;;;;5085787;28;20036;-71
2022/03/06 04:52:26;;;;;;;18.65;9.25;;;2.70;80.40;;;;;;5086356;28;20030;-71
2022/03/06 04:54:51;;;;;;;17.75;9.68;;;2.60;81.10;;;;;;5085857;28;20032;-71
2022/03/06 04:57:17;;;;;;;24.00;8.63;;;2.60;81.20;;;;;;5086311;28;20027;-71
2022/03/06 04:59:43;;;;;;;18.13;9.52;;;2.60;81.60;;;;;;5085397;28;20416;-71
2022/03/06 05:02:09;;;;;;;21.23;8.82;;;2.60;81.20;;;;;;5086221;28;20032;-71
2022/03/06 05:04:34;;;;;;;17.25;8.73;;;2.50;81.00;;;;;;5083964;28;20419;-71
2022/03/06 05:07:00;;;;;;;16.98;8.68;;;2.40;81.10;;;;;;5082919;28;20097;-71
2022/03/06 05:09:26;;;;;;;16.73;8.55;;;2.50;81.30;;;;;;5083954;28;20032;-71
2022/03/06 05:11:52;;;;;;;17.77;9.43;;;2.60;81.30;;;;;;5085601;28;20048;-71
2022/03/06 05:14:17;;;;;;;17.10;9.35;;;2.50;80.60;;;;;;5085437;28;20050;-71
2022/03/06 05:16:43;;;;;;;15.43;8.68;;;2.30;81.40;;;;;;5086023;28;20035;-71
2022/03/06 05:19:09;;;;;;;20.42;8.75;;;2.40;82.10;;;;;;5085389;28;20474;-71
2022/03/06 05:21:36;;;;;;;16.48;9.48;;;2.20;81.90;;;;;;5085915;28;20083;-71
2022/03/06 05:24:02;;;;;;;15.38;7.88;;;2.30;82.70;;;;;;5085097;28;20035;-71
2022/03/06 05:26:28;;;;;;;16.63;8.63;;;2.40;82.20;;;;;;5085925;28;20024;-71
2022/03/06 05:28:53;;;;;;;16.48;8.75;;;2.50;81.90;;;;;;5085797;28;20039;-71
2022/03/06 05:31:19;;;;;;;23.05;9.68;;;2.40;82.10;;;;;;5085826;28;20028;-71
2022/03/06 05:33:45;;;;;;;19.63;10.80;;;2.50;81.30;;;;;;5085433;28;20185;-71
2022/03/06 05:36:11;;;;;;;20.67;10.68;;;2.60;81.40;;;;;;5085466;28;20031;-71
2022/03/06 05:38:36;;;;;;;21.08;10.80;;;2.60;80.70;;;;;;5085300;28;20533;-71
2022/03/06 05:41:02;;;;;;;22.90;10.57;;;2.70;81.10;;;;;;5085590;28;20042;-71
2022/03/06 05:43:28;;;;;;;21.13;11.77;;;2.60;80.80;;;;;;5085621;28;20056;-71
2022/03/06 05:45:54;;;;;;;21.67;12.38;;;2.60;80.90;;;;;;5085382;28;20059;-71
2022/03/06 05:48:21;;;;;;;21.80;11.07;;;2.70;80.80;;;;;;5085415;28;20081;-71
2022/03/06 05:50:47;;;;;;;20.10;10.95;;;2.80;80.60;;;;;;5083597;28;20086;-71
2022/03/06 05:53:14;;;;;;;22.90;11.38;;;2.70;81.30;;;;;;5082574;28;20043;-71
2022/03/06 05:55:39;;;;;;;20.25;10.98;;;2.70;81.00;;;;;;5082150;28;20043;-71
2022/03/06 05:58:05;;;;;;;24.48;12.02;;;2.80;81.70;;;;;;5082464;28;20062;-71
2022/03/06 06:00:31;;;;;;;20.20;10.13;;;2.70;81.60;;;;;;5085801;28;20488;-71
2022/03/06 06:02:57;;;;;;;21.20;10.88;;;2.70;81.20;;;;;;5086262;28;20066;-71
2022/03/06 06:05:23;;;;;;;19.98;10.20;;;2.60;81.70;;;;;;5086120;28;20024;-71
2022/03/06 06:07:51;;;;;;;20.65;10.65;;;2.60;82.10;;;;;;5086204;28;20115;-71
2022/03/06 06:10:18;;;;;;;20.60;11.20;;;2.60;83.40;;;;;;5086119;28;20478;-71
2022/03/06 06:12:44;;;;;;;17.15;10.30;;;2.60;82.50;;;;;;5084171;28;20024;-71
2022/03/06 06:15:11;;;;;;;20.48;10.68;;;2.60;82.40;;;;;;5085857;28;20024;-71
2022/03/06 06:17:37;;;;;;;21.60;11.25;;;2.70;82.10;;;;;;5086301;28;20107;-71
2022/03/06 06:20:05;;;;;;;27.52;10.63;;;2.80;82.80;;;;;;5085461;28;20595;-71
2022/03/06 06:22:31;;;;;;;22.05;11.65;;;2.70;82.60;;;;;;5084717;28;20297;-71
2022/03/06 06:24:58;;;;;;;21.05;9.93;;;2.80;82.10;;;;;;5085964;28;20424;-71
2022/03/06 06:27:25;;;;;;;17.85;9.07;;;2.80;81.80;;;;;;5085154;28;20035;-71
2022/03/06 06:29:50;;;;;;;24.08;12.80;;;2.70;83.00;;;;;;5085531;28;20395;-71
2022/03/06 06:32:16;;;;;;;27.65;13.32;;;2.70;83.70;;;;;;5085589;28;20024;-71
2022/03/06 06:34:42;;;;;;;32.65;19.08;;;2.80;83.60;;;;;;5086214;28;20167;-71
2022/03/06 06:37:08;;;;;;;24.25;13.48;;;2.90;84.10;;;;;;5084996;28;20166;-71
2022/03/06 06:39:33;;;;;;;23.38;12.65;;;2.90;83.80;;;;;;5085511;28;20027;-71
2022/03/06 06:42:01;;;;;;;20.42;12.05;;;2.90;84.30;;;;;;5085150;28;20032;-71
2022/03/06 06:44:27;;;;;;;22.17;11.73;;;2.90;84.30;;;;;;5085601;28;20062;-71
2022/03/06 06:46:52;;;;;;;22.42;12.38;;;2.80;83.40;;;;;;5085434;28;20032;-71
2022/03/06 06:49:18;;;;;;;23.30;11.50;;;2.80;84.80;;;;;;5085446;28;20127;-71
2022/03/06 06:51:44;;;;;;;24.13;12.38;;;2.80;84.70;;;;;;5085162;28;20090;-71
2022/03/06 06:54:10;;;;;;;20.27;11.77;;;2.80;84.50;;;;;;5085159;28;20056;-71
2022/03/06 06:56:35;;;;;;;26.70;13.15;;;2.90;84.40;;;;;;5085463;28;20036;-71
2022/03/06 06:59:01;;;;;;;25.60;11.38;;;2.80;84.90;;;;;;5084996;28;20051;-71
2022/03/06 07:01:27;;;;;;;24.00;11.73;;;3.00;84.90;;;;;;5084584;28;20040;-71
2022/03/06 07:03:52;;;;;;;23.90;12.93;;;3.00;84.70;;;;;;5085204;28;20110;-71
2022/03/06 07:06:18;;;;;;;22.75;13.00;;;3.00;84.80;;;;;;5068917;28;20471;-71
2022/03/06 07:08:43;;;;;;;21.67;11.55;;;3.10;84.40;;;;;;5082841;28;20371;-71
2022/03/06 07:11:09;;;;;;;22.75;12.82;;;3.10;84.60;;;;;;5084284;28;20028;-71
2022/03/06 07:13:35;;;;;;;23.83;12.52;;;3.20;84.70;;;;;;5085422;28;20123;-71
2022/03/06 07:16:01;;;;;;;22.42;13.20;;;3.00;84.30;;;;;;5084863;28;20023;-71
2022/03/06 07:18:26;;;;;;;21.85;13.10;;;2.90;84.70;;;;;;5085198;28;20020;-71
2022/03/06 07:20:52;;;;;;;23.00;12.30;;;3.00;84.30;;;;;;5083165;28;20126;-71
2022/03/06 07:23:18;;;;;;;25.25;13.52;;;3.00;83.60;;;;;;5085153;28;20123;-71
2022/03/06 07:25:44;;;;;;;22.25;12.20;;;3.10;84.80;;;;;;5084435;28;20490;-71
2022/03/06 07:28:10;;;;;;;29.65;12.95;;;3.10;84.80;;;;;;5085303;28;20024;-71
2022/03/06 07:30:35;;;;;;;31.23;17.02;;;3.20;84.70;;;;;;5085377;28;20028;-71
2022/03/06 07:33:01;;;;;;;27.85;15.55;;;3.10;84.40;;;;;;5088167;28;20031;-71
2022/03/06 07:35:28;;;;;;;25.30;12.38;;;3.20;84.40;;;;;;5087762;28;20075;-71
2022/03/06 07:37:54;;;;;;;30.63;13.10;;;3.20;84.00;;;;;;5088492;28;20105;-71
2022/03/06 07:40:21;;;;;;;21.27;12.90;;;3.30;83.30;;;;;;5087660;28;20036;-71
2022/03/06 07:42:48;;;;;;;26.10;13.95;;;3.40;81.60;;;;;;5088107;28;20663;-71
2022/03/06 07:45:15;;;;;;;21.20;12.80;;;3.30;80.90;;;;;;5081216;28;20055;-71
2022/03/06 07:47:41;;;;;;;23.63;12.35;;;3.30;81.50;;;;;;5087792;28;20047;-71
2022/03/06 07:50:09;;;;;;;22.25;12.25;;;3.40;80.10;;;;;;5087752;28;20039;-71
2022/03/06 07:52:36;;;;;;;24.15;12.50;;;3.60;80.40;;;;;;5088010;28;20031;-71
2022/03/06 07:55:02;;;;;;;21.48;11.18;;;3.60;79.90;;;;;;5087534;28;20032;-71
2022/03/06 07:57:27;;;;;;;23.35;11.52;;;3.50;80.50;;;;;;5088032;28;20081;-71
2022/03/06 07:59:53;;;;;;;20.60;11.60;;;3.40;80.10;;;;;;5087453;28;20236;-71
2022/03/06 08:02:19;;;;;;;19.80;10.93;;;3.40;79.70;;;;;;5087574;28;20038;-71
2022/03/06 08:04:44;;;;;;;20.60;10.95;;;3.40;79.30;;;;;;5085063;28;20059;-72
2022/03/06 08:07:10;;;;;;;19.02;10.65;;;3.50;79.70;;;;;;5084499;28;20445;-71
2022/03/06 08:09:36;;;;;;;20.77;10.95;;;3.40;78.50;;;;;;5086747;28;20099;-71
2022/03/06 08:12:01;;;;;;;17.70;9.80;;;3.20;78.40;;;;;;5087356;28;20183;-71
2022/03/06 08:14:28;;;;;;;16.92;9.55;;;3.30;78.80;;;;;;5087233;28;20020;-71
2022/03/06 08:16:54;;;;;;;17.15;8.82;;;3.30;79.50;;;;;;5086375;28;20036;-71
2022/03/06 08:19:20;;;;;;;20.98;10.35;;;3.20;78.90;;;;;;5088104;28;20466;-71
2022/03/06 08:21:45;;;;;;;18.15;10.10;;;3.20;77.90;;;;;;5086732;28;20420;-71
2022/03/06 08:24:11;;;;;;;16.35;8.43;;;3.30;77.10;;;;;;5086493;28;20023;-71
2022/03/06 08:26:37;;;;;;;17.23;9.98;;;3.30;76.50;;;;;;5079068;28;20037;-71
2022/03/06 08:29:02;;;;;;;18.23;9.65;;;3.30;76.60;;;;;;5066932;28;20029;-71
2022/03/06 08:31:28;;;;;;;12.93;7.72;;;3.40;76.50;;;;;;5085907;28;20031;-71
2022/03/06 08:33:54;;;;;;;14.95;8.93;;;3.60;76.60;;;;;;5087324;28;20088;-71
2022/03/06 08:36:20;;;;;;;19.20;10.10;;;3.70;76.90;;;;;;5086645;28;20082;-71
2022/03/06 08:38:46;;;;;;;19.05;10.02;;;3.70;77.10;;;;;;5086907;28;20024;-71
2022/03/06 08:41:11;;;;;;;17.38;9.60;;;3.70;76.30;;;;;;5086925;28;20036;-71
2022/03/06 08:43:37;;;;;;;18.52;9.10;;;3.80;76.40;;;;;;5086593;28;20095;-71
2022/03/06 08:46:03;;;;;;;19.95;10.15;;;3.80;75.50;;;;;;5086695;28;20039;-72
2022/03/06 08:48:30;;;;;;;16.90;9.73;;;3.80;75.20;;;;;;5086415;28;20522;-72
2022/03/06 08:50:56;;;;;;;16.23;8.98;;;3.80;76.10;;;;;;5086913;28;20024;-72
2022/03/06 08:53:22;;;;;;;16.50;9.45;;;3.80;74.90;;;;;;5073518;28;20182;-72
2022/03/06 08:55:48;;;;;;;15.63;9.77;;;3.80;73.80;;;;;;5066926;28;20155;-72
2022/03/06 08:58:14;;;;;;;18.02;9.93;;;3.80;73.90;;;;;;5066040;28;20051;-72
2022/03/06 09:00:39;;;;;;;19.92;10.52;;;3.80;74.00;;;;;;5067687;28;20055;-72
2022/03/06 09:03:05;;;;;;;18.95;9.48;;;3.90;74.30;;;;;;5074851;28;20017;-72
2022/03/06 09:05:31;;;;;;;17.77;9.60;;;3.90;74.20;;;;;;5082917;28;20035;-70
2022/03/06 09:07:56;;;;;;;17.40;9.60;;;3.70;74.50;;;;;;5080244;28;20046;-70
2022/03/06 09:10:22;;;;;;;20.52;10.27;;;3.90;75.30;;;;;;5084672;28;20055;-70
2022/03/06 09:12:48;;;;;;;17.02;9.88;;;4.10;76.40;;;;;;5086775;28;20111;-72
2022/03/06 09:15:14;;;;;;;18.08;9.55;;;4.10;74.80;;;;;;5076504;28;20420;-72
2022/03/06 09:17:40;;;;;;;19.25;10.13;;;4.10;74.80;;;;;;5086197;28;20651;-72
2022/03/06 09:20:06;;;;;;;19.27;9.40;;;4.30;74.40;;;;;;5086185;28;20028;-72
2022/03/06 09:22:32;;;;;;;18.75;9.80;;;4.20;74.10;;;;;;5083827;28;20435;-72
2022/03/06 09:24:57;;;;;;;16.67;10.00;;;4.30;75.70;;;;;;5086620;28;20036;-72
2022/03/06 09:27:23;;;;;;;23.45;13.55;;;4.40;74.70;;;;;;5085521;28;20032;-72
2022/03/06 09:29:49;;;;;;;16.58;9.68;;;4.70;75.00;;;;;;5085566;28;20039;-72
2022/03/06 09:32:15;;;;;;;21.88;10.63;;;4.70;73.00;;;;;;5084090;28;20038;-72
2022/03/06 09:34:40;;;;;;;18.80;9.88;;;4.70;73.30;;;;;;5089976;28;20028;-72
2022/03/06 09:37:06;;;;;;;16.10;10.00;;;4.90;73.70;;;;;;5089347;28;20036;-71
2022/03/06 09:39:32;;;;;;;15.45;8.38;;;4.90;73.00;;;;;;5089854;28;20035;-72
2022/03/06 09:41:57;;;;;;;17.02;9.45;;;4.70;72.40;;;;;;5088052;28;20513;-71
2022/03/06 09:44:25;;;;;;;16.55;10.10;;;4.80;73.30;;;;;;5089495;28;20402;-71
2022/03/06 09:46:54;;;;;;;17.85;10.40;;;5.10;74.00;;;;;;5088476;28;20056;-72
2022/03/06 09:49:21;;;;;;;20.13;10.05;;;5.00;73.30;;;;;;5090014;28;20024;-72
2022/03/06 09:51:46;;;;;;;20.42;10.63;;;5.00;73.70;;;;;;5086418;28;20028;-72
2022/03/06 09:54:13;;;;;;;19.30;10.52;;;5.10;73.80;;;;;;5086075;28;20409;-72
2022/03/06 09:56:43;;;;;;;19.17;10.63;;;5.10;73.30;;;;;;5087062;28;20027;-70
2022/03/06 09:59:10;;;;;;;21.23;11.05;;;5.10;72.80;;;;;;5084894;28;20272;-70
2022/03/06 10:01:36;;;;;;;19.38;10.13;;;5.30;73.60;;;;;;5086225;28;20059;-70
2022/03/06 10:04:25;;;;;;;18.58;9.98;;;5.40;72.50;;;;;;5086783;28;20466;-71
2022/03/06 10:07:08;;;;;;;21.10;10.60;;;5.20;72.60;;;;;;5084770;28;20024;-71
2022/03/06 10:09:51;;;;;;;17.88;10.10;;;5.40;72.80;;;;;;5087667;28;20062;-72
2022/03/06 10:12:29;;;;;;;21.85;10.25;;;5.60;72.60;;;;;;5086998;28;20043;-70
2022/03/06 10:14:57;;;;;;;18.25;9.77;;;5.70;72.50;;;;;;5085754;28;20047;-71
2022/03/06 10:17:24;;;;;;;18.63;10.57;;;5.80;72.70;;;;;;5086637;28;20028;-71
2022/03/06 10:19:56;;;;;;;19.08;10.63;;;6.00;72.60;;;;;;5085683;28;20422;-70
2022/03/06 10:22:26;;;;;;;19.73;11.05;;;6.00;72.80;;;;;;5085958;28;20036;-70
2022/03/06 10:25:04;;;;;;;19.52;9.80;;;6.20;73.10;;;;;;5085843;28;20066;-69
2022/03/06 10:27:57;;;;;;;17.92;10.68;;;6.50;81.60;;;;;;5085897;28;20108;-71
2022/03/06 10:30:25;;;;;;;19.48;11.57;;;7.70;75.80;;;;;;5066173;28;20584;-71
2022/03/06 10:32:52;;;;;;;19.63;10.90;;;7.00;72.40;;;;;;5073923;28;20081;-71
2022/03/06 10:35:18;;;;;;;20.27;10.50;;;6.90;72.00;;;;;;5087138;28;20482;-71
2022/03/06 10:37:44;;;;;;;21.90;11.50;;;6.70;71.60;;;;;;5086627;28;20028;-71
2022/03/06 10:40:14;;;;;;;19.20;11.63;;;6.40;71.50;;;;;;5084392;28;20416;-71
2022/03/06 10:42:41;;;;;;;23.40;12.25;;;6.40;72.00;;;;;;5083068;28;20032;-71
2022/03/06 10:45:21;;;;;;;20.42;12.48;;;6.20;71.90;;;;;;5076204;28;20153;-71
2022/03/06 10:47:47;;;;;;;20.17;11.30;;;6.50;72.30;;;;;;5085665;28;20028;-71
2022/03/06 10:50:19;;;;;;;21.58;11.43;;;6.80;72.00;;;;;;5084192;28;20093;-71
2022/03/06 10:52:45;;;;;;;34.55;13.48;;;6.70;71.60;;;;;;5082451;28;20036;-71
2022/03/06 10:55:11;;;;;;;25.63;11.93;;;6.80;71.60;;;;;;5085088;28;20436;-71
2022/03/06 10:57:37;;;;;;;20.35;12.65;;;6.90;71.80;;;;;;5085251;28;20028;-71
2022/03/06 11:00:04;;;;;;;22.25;12.25;;;7.20;71.50;;;;;;5084049;28;20074;-71
2022/03/06 11:02:31;;;;;;;22.40;12.13;;;7.60;71.00;;;;;;5083368;28;20028;-71
2022/03/06 11:04:58;;;;;;;21.75;11.30;;;7.60;69.70;;;;;;5084975;28;20028;-71
2022/03/06 11:07:28;;;;;;;20.65;12.65;;;7.40;69.10;;;;;;5085402;28;20032;-71
2022/03/06 11:09:57;;;;;;;27.92;15.15;;;7.50;70.10;;;;;;5083629;28;20024;-70
2022/03/06 11:12:24;;;;;;;25.60;16.73;;;7.70;69.80;;;;;;5081313;28;20115;-71
2022/03/06 11:14:50;;;;;;;18.25;11.95;;;8.00;69.60;;;;;;5081199;28;20042;-71
2022/03/06 11:17:16;;;;;;;19.95;10.48;;;8.00;68.50;;;;;;5085300;28;20404;-71
2022/03/06 11:19:42;;;;;;;20.60;11.52;;;7.90;67.60;;;;;;5085375;28;20038;-71
2022/03/06 11:22:41;;;;;;;17.58;10.30;;;7.70;66.90;;;;;;5084498;28;20153;-71
2022/03/06 11:25:12;;;;;;;19.95;11.98;;;7.50;68.60;;;;;;5076923;28;20050;-71
2022/03/06 11:27:59;;;;;;;20.45;12.95;;;8.00;68.40;;;;;;5085432;28;20481;-71
2022/03/06 11:30:25;;;;;;;20.17;11.45;;;8.00;68.40;;;;;;5084625;28;20031;-71
2022/03/06 11:33:09;;;;;;;22.92;12.45;;;8.10;68.10;;;;;;5084560;28;20047;-71
2022/03/06 11:35:44;;;;;;;17.92;9.95;;;8.40;67.30;;;;;;5068721;28;20032;-71
2022/03/06 11:38:13;;;;;;;24.42;14.18;;;8.20;66.70;;;;;;5081542;28;20063;-71
2022/03/06 11:40:47;;;;;;;20.30;11.20;;;8.00;66.00;;;;;;5084496;28;20040;-71
2022/03/06 11:43:38;;;;;;;16.88;10.93;;;8.10;66.90;;;;;;5084384;28;20203;-71
2022/03/06 11:46:16;;;;;;;19.63;11.43;;;8.00;66.70;;;;;;5084229;28;20024;-71
2022/03/06 11:48:44;;;;;;;18.25;10.00;;;7.80;66.70;;;;;;5079163;28;20828;-71
2022/03/06 11:51:22;;;;;;;18.70;11.15;;;7.80;66.10;;;;;;5083202;28;20035;-71
2022/03/06 11:54:02;;;;;;;21.48;12.13;;;7.90;66.50;;;;;;5084246;28;20058;-71
2022/03/06 11:56:52;;;;;;;30.85;15.10;;;8.40;65.90;;;;;;5085253;28;20093;-71
2022/03/06 11:59:18;;;;;;;33.10;18.67;;;8.40;66.00;;;;;;5084871;28;20122;-71
2022/03/06 12:02:01;;;;;;;16.13;10.15;;;8.70;65.10;;;;;;5084514;28;20040;-70
2022/03/06 12:04:32;;;;;;;17.73;10.73;;;8.40;64.60;;;;;;5085463;28;20420;-70
2022/03/06 12:07:04;;;;;;;23.77;13.82;;;8.40;65.50;;;;;;5084990;28;20500;-71
2022/03/06 12:09:33;;;;;;;34.13;17.83;;;8.70;65.60;;;;;;5084841;28;20036;-71
2022/03/06 12:12:01;;;;;;;19.40;11.05;;;8.80;64.50;;;;;;5082869;28;20036;-72
2022/03/06 12:14:40;;;;;;;25.02;12.77;;;8.70;65.10;;;;;;5084696;28;20035;-71
2022/03/06 12:17:07;;;;;;;16.35;10.13;;;8.80;65.00;;;;;;5085236;28;20032;-71
2022/03/06 12:19:45;;;;;;;20.10;12.48;;;8.50;64.90;;;;;;5077486;28;20044;-71
2022/03/06 12:22:14;;;;;;;25.70;13.70;;;8.70;63.40;;;;;;5064504;28;20036;-71
2022/03/06 12:24:45;;;;;;;18.85;9.32;;;8.80;63.90;;;;;;5071219;28;20399;-71
2022/03/06 12:27:15;;;;;;;22.95;12.75;;;8.70;63.10;;;;;;5087040;28;20064;-71
2022/03/06 12:29:47;;;;;;;17.83;10.07;;;8.60;62.90;;;;;;5083445;28;20495;-71
2022/03/06 12:32:34;;;;;;;16.98;9.55;;;8.80;65.50;;;;;;5086123;28;20028;-72
2022/03/06 12:35:01;;;;;;;18.23;9.20;;;8.80;63.40;;;;;;5081204;28;20032;-71
2022/03/06 12:37:27;;;;;;;15.88;7.88;;;8.60;62.30;;;;;;5083449;28;20540;-73
2022/03/06 12:39:54;;;;;;;17.80;8.45;;;8.50;61.50;;;;;;5084808;28;20351;-72
2022/03/06 12:42:30;;;;;;;15.65;8.82;;;8.50;62.20;;;;;;5083312;28;20024;-71
2022/03/06 12:45:02;;;;;;;14.95;7.80;;;8.40;61.30;;;;;;5084126;28;20107;-72